createdAt,value
2023-05-13T00:00:17.367Z,96222.28
2023-05-13T00:01:19.068Z,96223.31
2023-05-13T00:02:21.030Z,96220.97
2023-05-13T00:03:22.788Z,96229.66
2023-05-13T00:04:24.334Z,96228.88
2023-05-13T00:05:25.840Z,96223.06
2023-05-13T00:06:27.412Z,96230.19
2023-05-13T00:07:28.881Z,96227.53
2023-05-13T00:08:30.316Z,96224.91
2023-05-13T00:09:31.848Z,96220.94
2023-05-13T00:10:33.351Z,96227.25
2023-05-13T00:11:34.823Z,96228.06
2023-05-13T00:12:36.260Z,96226.72
2023-05-13T00:13:37.746Z,96228.59
2023-05-13T00:14:39.374Z,96229.38
2023-05-13T00:15:40.886Z,96227.00
2023-05-13T00:16:42.436Z,96231.47
2023-05-13T00:17:43.959Z,96222.78
2023-05-13T00:18:45.493Z,96226.47
2023-05-13T00:19:46.903Z,96224.88
2023-05-13T00:20:48.389Z,96233.06
2023-05-13T00:21:49.858Z,96227.78
2023-05-13T00:22:51.360Z,96231.50
2023-05-13T00:23:52.782Z,96230.69
2023-05-13T00:24:54.216Z,96230.97
2023-05-13T00:25:55.682Z,96235.44
2023-05-13T00:26:57.082Z,96232.00
2023-05-13T00:27:58.527Z,96233.06
2023-05-13T00:29:00.035Z,96240.97
2023-05-13T00:30:01.567Z,96234.38
2023-05-13T00:31:03.106Z,96236.75
2023-05-13T00:32:04.789Z,96229.09
2023-05-13T00:33:06.309Z,96236.47
2023-05-13T00:34:07.791Z,96233.56
2023-05-13T00:35:09.219Z,96233.03
2023-05-13T00:36:10.668Z,96237.53
2023-05-13T00:37:12.127Z,96240.41
2023-05-13T00:38:13.587Z,96230.94
2023-05-13T00:39:15.034Z,96236.22
2023-05-13T00:40:16.461Z,96231.97
2023-05-13T00:41:17.952Z,96231.97
2023-05-13T00:42:19.393Z,96233.03
2023-05-13T00:43:20.833Z,96230.66
2023-05-13T00:44:22.286Z,96228.81
2023-05-13T00:45:23.753Z,96237.78
2023-05-13T00:46:25.449Z,96230.91
2023-05-13T00:47:26.977Z,96238.03
2023-05-13T00:48:28.467Z,96234.63
2023-05-13T00:49:29.878Z,96236.44
2023-05-13T00:50:31.319Z,96233.03
2023-05-13T00:51:32.818Z,96231.44
2023-05-13T00:52:34.260Z,96228.00
2023-05-13T00:53:35.703Z,96239.38
2023-05-13T00:54:37.123Z,96240.41
2023-05-13T00:55:38.542Z,96236.19
2023-05-13T00:56:39.985Z,96238.00
2023-05-13T00:57:41.418Z,96232.75
2023-05-13T00:58:42.818Z,96238.28
2023-05-13T00:59:44.244Z,96236.44
2023-05-13T01:00:45.741Z,96239.34
2023-05-13T01:01:47.257Z,96231.44
2023-05-13T01:02:48.795Z,96236.69
2023-05-13T01:03:50.305Z,96232.47
2023-05-13T01:04:51.747Z,96230.63
2023-05-13T01:05:53.169Z,96238.56
2023-05-13T01:06:54.964Z,96235.91
2023-05-13T01:07:56.352Z,96236.94
2023-05-13T01:08:57.768Z,96238.81
2023-05-13T01:09:59.190Z,96236.16
2023-05-13T01:11:00.638Z,96238.81
2023-05-13T01:12:02.071Z,96242.22
2023-05-13T01:13:03.515Z,96244.09
2023-05-13T01:14:04.975Z,96241.44
2023-05-13T01:15:06.462Z,96243.28
2023-05-13T01:16:07.935Z,96240.66
2023-05-13T01:17:09.395Z,96235.38
2023-05-13T01:18:10.977Z,96240.66
2023-05-13T01:19:12.482Z,96238.81
2023-05-13T01:20:13.934Z,96240.66
2023-05-13T01:21:15.410Z,96236.41
2023-05-13T01:22:16.859Z,96240.66
2023-05-13T01:23:18.276Z,96237.22
2023-05-13T01:24:19.720Z,96240.91
2023-05-13T01:25:21.150Z,96238.28
2023-05-13T01:26:22.601Z,96230.34
2023-05-13T01:27:24.063Z,96239.06
2023-05-13T01:28:25.507Z,96232.22
2023-05-13T01:29:26.928Z,96236.66
2023-05-13T01:30:28.372Z,96237.50
2023-05-13T01:31:29.861Z,96234.84
2023-05-13T01:32:31.388Z,96242.75
2023-05-13T01:33:32.854Z,96235.88
2023-05-13T01:34:34.261Z,96235.88
2023-05-13T01:35:35.682Z,96235.88
2023-05-13T01:36:37.125Z,96236.66
2023-05-13T01:37:38.597Z,96231.41
2023-05-13T01:38:39.991Z,96234.84
2023-05-13T01:39:41.430Z,96237.50
2023-05-13T01:40:42.857Z,96233.25
2023-05-13T01:41:44.290Z,96235.88
2023-05-13T01:42:45.751Z,96235.88
2023-05-13T01:43:47.177Z,96236.66
2023-05-13T01:44:48.616Z,96228.75
2023-05-13T01:45:50.075Z,96238.28
2023-05-13T01:46:51.544Z,96234.84
2023-05-13T01:47:53.069Z,96242.75
2023-05-13T01:48:54.504Z,96238.28
2023-05-13T01:49:55.942Z,96234.84
2023-05-13T01:50:57.397Z,96241.69
2023-05-13T01:51:58.832Z,96241.69
2023-05-13T01:53:00.297Z,96242.75
2023-05-13T01:54:01.694Z,96236.41
2023-05-13T01:55:03.138Z,96239.06
2023-05-13T01:56:04.624Z,96235.63
2023-05-13T01:57:06.075Z,96239.06
2023-05-13T01:58:07.499Z,96234.84
2023-05-13T01:59:08.913Z,96244.09
2023-05-13T02:00:10.401Z,96240.66
2023-05-13T02:01:11.851Z,96245.94
2023-05-13T02:02:13.383Z,96245.94
2023-05-13T02:03:14.892Z,96239.84
2023-05-13T02:04:16.480Z,96248.56
2023-05-13T02:05:18.170Z,96247.75
2023-05-13T02:06:19.744Z,96240.66
2023-05-13T02:07:21.163Z,96235.38
2023-05-13T02:08:22.626Z,96244.88
2023-05-13T02:09:24.036Z,96242.22
2023-05-13T02:10:25.475Z,96244.88
2023-05-13T02:11:27.008Z,96241.44
2023-05-13T02:12:28.536Z,96244.88
2023-05-13T02:13:29.966Z,96234.31
2023-05-13T02:14:31.427Z,96235.09
2023-05-13T02:15:32.867Z,96238.81
2023-05-13T02:16:34.387Z,96240.38
2023-05-13T02:17:35.854Z,96239.34
2023-05-13T02:18:37.456Z,96246.47
2023-05-13T02:19:38.880Z,96243.00
2023-05-13T02:20:40.327Z,96237.47
2023-05-13T02:21:41.764Z,96241.19
2023-05-13T02:22:43.284Z,96240.91
2023-05-13T02:23:44.744Z,96235.63
2023-05-13T02:24:46.209Z,96242.75
2023-05-13T02:25:47.666Z,96237.47
2023-05-13T02:26:49.110Z,96236.69
2023-05-13T02:27:50.504Z,96242.75
2023-05-13T02:28:51.937Z,96242.75
2023-05-13T02:29:53.389Z,96237.47
2023-05-13T02:30:54.819Z,96237.22
2023-05-13T02:31:56.340Z,96240.91
2023-05-13T02:32:57.822Z,96242.50
2023-05-13T02:33:59.293Z,96238.28
2023-05-13T02:35:00.879Z,96243.53
2023-05-13T02:36:02.368Z,96245.16
2023-05-13T02:37:03.838Z,96243.28
2023-05-13T02:38:05.283Z,96237.22
2023-05-13T02:39:06.732Z,96238.84
2023-05-13T02:40:08.244Z,96238.84
2023-05-13T02:41:09.695Z,96240.66
2023-05-13T02:42:11.157Z,96244.88
2023-05-13T02:43:12.597Z,96238.84
2023-05-13T02:44:14.058Z,96245.69
2023-05-13T02:45:15.500Z,96238.56
2023-05-13T02:46:17.016Z,96243.03
2023-05-13T02:47:18.540Z,96246.47
2023-05-13T02:48:19.997Z,96242.00
2023-05-13T02:49:21.452Z,96244.88
2023-05-13T02:50:23.069Z,96246.47
2023-05-13T02:51:24.670Z,96243.81
2023-05-13T02:52:26.144Z,96242.00
2023-05-13T02:53:27.575Z,96242.78
2023-05-13T02:54:29.001Z,96235.91
2023-05-13T02:55:30.448Z,96236.72
2023-05-13T02:56:31.934Z,96241.19
2023-05-13T02:57:33.399Z,96247.28
2023-05-13T02:58:34.866Z,96245.41
2023-05-13T02:59:36.319Z,96246.22
2023-05-13T03:00:37.808Z,96242.78
2023-05-13T03:01:39.277Z,96243.56
2023-05-13T03:02:40.863Z,96240.16
2023-05-13T03:03:42.387Z,96238.56
2023-05-13T03:04:43.895Z,96239.38
2023-05-13T03:05:45.321Z,96241.72
2023-05-13T03:06:46.780Z,96244.34
2023-05-13T03:07:48.225Z,96239.91
2023-05-13T03:08:49.652Z,96242.53
2023-05-13T03:09:51.197Z,96241.72
2023-05-13T03:10:52.657Z,96244.34
2023-05-13T03:11:54.135Z,96244.34
2023-05-13T03:12:55.645Z,96244.34
2023-05-13T03:13:57.095Z,96240.69
2023-05-13T03:14:58.601Z,96251.22
2023-05-13T03:16:00.086Z,96247.00
2023-05-13T03:17:02.046Z,96242.53
2023-05-13T03:18:03.588Z,96246.75
2023-05-13T03:19:05.105Z,96248.59
2023-05-13T03:20:06.585Z,96249.38
2023-05-13T03:21:08.039Z,96245.69
2023-05-13T03:22:09.482Z,96244.88
2023-05-13T03:23:10.917Z,96248.59
2023-05-13T03:24:12.360Z,96248.59
2023-05-13T03:25:13.828Z,96242.53
2023-05-13T03:26:15.338Z,96238.03
2023-05-13T03:27:16.761Z,96244.88
2023-05-13T03:28:18.173Z,96242.25
2023-05-13T03:29:19.591Z,96244.09
2023-05-13T03:30:21.250Z,96246.75
2023-05-13T03:31:22.863Z,96247.53
2023-05-13T03:32:24.387Z,96245.94
2023-05-13T03:33:25.882Z,96242.25
2023-05-13T03:34:27.318Z,96250.16
2023-05-13T03:35:29.026Z,96243.31
2023-05-13T03:36:30.430Z,96248.34
2023-05-13T03:37:31.856Z,96238.81
2023-05-13T03:38:33.294Z,96254.41
2023-05-13T03:39:34.766Z,96254.41
2023-05-13T03:40:36.222Z,96250.97
2023-05-13T03:41:37.730Z,96250.97
2023-05-13T03:42:39.207Z,96252.56
2023-05-13T03:43:40.704Z,96255.19
2023-05-13T03:44:42.176Z,96252.56
2023-05-13T03:45:43.616Z,96251.75
2023-05-13T03:46:45.164Z,96249.66
2023-05-13T03:47:46.787Z,96249.13
2023-05-13T03:48:48.223Z,96248.88
2023-05-13T03:49:49.653Z,96255.97
2023-05-13T03:50:51.066Z,96252.28
2023-05-13T03:51:52.557Z,96255.72
2023-05-13T03:52:53.977Z,96258.34
2023-05-13T03:53:55.476Z,96251.22
2023-05-13T03:54:56.947Z,96254.69
2023-05-13T03:55:58.452Z,96254.69
2023-05-13T03:57:00.168Z,96258.59
2023-05-13T03:58:01.646Z,96263.38
2023-05-13T03:59:03.144Z,96256.25
2023-05-13T04:00:04.605Z,96263.38
2023-05-13T04:01:06.044Z,96260.75
2023-05-13T04:02:07.554Z,96258.88
2023-05-13T04:03:09.256Z,96255.47
2023-05-13T04:04:10.797Z,96259.41
2023-05-13T04:05:12.334Z,96265.75
2023-05-13T04:06:13.800Z,96264.94
2023-05-13T04:07:15.257Z,96258.63
2023-05-13T04:08:16.796Z,96262.06
2023-05-13T04:09:18.273Z,96265.47
2023-05-13T04:10:19.906Z,96260.22
2023-05-13T04:11:21.458Z,96261.81
2023-05-13T04:12:22.925Z,96261.03
2023-05-13T04:13:24.399Z,96257.56
2023-05-13T04:14:25.855Z,96262.84
2023-05-13T04:15:27.324Z,96267.88
2023-05-13T04:16:28.880Z,96257.31
2023-05-13T04:17:30.441Z,96268.69
2023-05-13T04:18:31.930Z,96267.88
2023-05-13T04:19:33.415Z,96266.03
2023-05-13T04:20:34.872Z,96273.97
2023-05-13T04:21:36.400Z,96266.81
2023-05-13T04:22:37.906Z,96271.31
2023-05-13T04:23:39.332Z,96262.34
2023-05-13T04:24:40.794Z,96259.69
2023-05-13T04:25:42.297Z,96268.41
2023-05-13T04:26:43.848Z,96277.13
2023-05-13T04:27:45.323Z,96272.63
2023-05-13T04:28:46.773Z,96269.22
2023-05-13T04:29:48.260Z,96271.56
2023-05-13T04:30:49.679Z,96267.38
2023-05-13T04:31:51.202Z,96276.06
2023-05-13T04:32:52.866Z,96275.03
2023-05-13T04:33:54.468Z,96275.81
2023-05-13T04:34:55.968Z,96276.84
2023-05-13T04:35:57.406Z,96277.66
2023-05-13T04:36:58.907Z,96281.88
2023-05-13T04:38:00.336Z,96280.31
2023-05-13T04:39:01.832Z,96278.19
2023-05-13T04:40:03.283Z,96282.66
2023-05-13T04:41:04.730Z,96281.88
2023-05-13T04:42:06.602Z,96278.97
2023-05-13T04:43:08.160Z,96280.00
2023-05-13T04:44:09.611Z,96274.50
2023-05-13T04:45:11.069Z,96286.91
2023-05-13T04:46:12.655Z,96289.28
2023-05-13T04:47:14.190Z,96285.56
2023-05-13T04:48:15.636Z,96276.09
2023-05-13T04:49:17.106Z,96276.09
2023-05-13T04:50:19.163Z,96278.72
2023-05-13T04:51:20.917Z,96275.81
2023-05-13T04:52:22.753Z,96281.91
2023-05-13T04:53:24.186Z,96282.69
2023-05-13T04:54:25.632Z,96280.81
2023-05-13T04:55:27.846Z,96286.88
2023-05-13T04:56:29.557Z,96286.88
2023-05-13T04:57:31.107Z,96282.44
2023-05-13T04:58:32.710Z,96281.59
2023-05-13T04:59:34.291Z,96280.56
2023-05-13T05:00:35.794Z,96284.00
2023-05-13T05:01:37.326Z,96284.00
2023-05-13T05:02:38.914Z,96284.00
2023-05-13T05:03:40.481Z,96294.28
2023-05-13T05:04:42.112Z,96290.59
2023-05-13T05:05:43.635Z,96289.81
2023-05-13T05:06:45.184Z,96282.69
2023-05-13T05:07:46.794Z,96283.50
2023-05-13T05:08:48.355Z,96286.91
2023-05-13T05:09:49.863Z,96287.69
2023-05-13T05:10:51.420Z,96292.19
2023-05-13T05:11:53.026Z,96293.50
2023-05-13T05:12:54.645Z,96289.84
2023-05-13T05:13:56.177Z,96291.41
2023-05-13T05:14:57.692Z,96295.09
2023-05-13T05:15:59.256Z,96299.31
2023-05-13T05:17:00.783Z,96298.28
2023-05-13T05:18:02.540Z,96297.22
2023-05-13T05:19:04.382Z,96299.84
2023-05-13T05:20:06.085Z,96293.53
2023-05-13T05:21:07.728Z,96297.75
2023-05-13T05:22:09.293Z,96303.84
2023-05-13T05:23:10.785Z,96294.06
2023-05-13T05:24:12.383Z,96293.28
2023-05-13T05:25:13.941Z,96294.59
2023-05-13T05:26:15.493Z,96294.34
2023-05-13T05:27:17.003Z,96299.34
2023-05-13T05:28:18.615Z,96301.72
2023-05-13T05:29:20.154Z,96307.00
2023-05-13T05:30:21.967Z,96301.47
2023-05-13T05:31:23.752Z,96303.84
2023-05-13T05:32:25.437Z,96303.84
2023-05-13T05:33:27.061Z,96313.09
2023-05-13T05:34:28.596Z,96310.44
2023-05-13T05:35:30.190Z,96312.03
2023-05-13T05:36:31.821Z,96304.66
2023-05-13T05:37:33.493Z,96303.59
2023-05-13T05:38:35.053Z,96309.66
2023-05-13T05:39:36.556Z,96307.53
2023-05-13T05:40:38.114Z,96304.91
2023-05-13T05:41:39.650Z,96307.28
2023-05-13T05:42:41.484Z,96308.06
2023-05-13T05:43:42.992Z,96308.63
2023-05-13T05:44:44.593Z,96304.91
2023-05-13T05:45:46.217Z,96308.09
2023-05-13T05:46:48.156Z,96314.16
2023-05-13T05:47:49.742Z,96314.69
2023-05-13T05:48:51.289Z,96317.06
2023-05-13T05:49:52.868Z,96315.22
2023-05-13T05:50:54.397Z,96318.38
2023-05-13T05:51:55.971Z,96315.50
2023-05-13T05:52:57.552Z,96307.31
2023-05-13T05:53:59.149Z,96316.81
2023-05-13T05:55:00.737Z,96312.88
2023-05-13T05:56:02.318Z,96320.53
2023-05-13T05:57:03.955Z,96316.56
2023-05-13T05:58:05.604Z,96312.06
2023-05-13T05:59:07.286Z,96312.59
2023-05-13T06:00:08.836Z,96312.34
2023-05-13T06:01:10.355Z,96312.09
2023-05-13T06:02:11.919Z,96310.78
2023-05-13T06:03:13.720Z,96303.38
2023-05-13T06:04:16.001Z,96310.78
2023-05-13T06:05:17.619Z,96312.38
2023-05-13T06:06:19.182Z,96312.91
2023-05-13T06:07:20.667Z,96310.00
2023-05-13T06:08:22.166Z,96314.72
2023-05-13T06:09:23.845Z,96313.69
2023-05-13T06:10:25.310Z,96312.34
2023-05-13T06:11:26.731Z,96315.53
2023-05-13T06:12:28.136Z,96314.22
2023-05-13T06:13:29.538Z,96312.13
2023-05-13T06:14:30.988Z,96315.00
2023-05-13T06:15:32.630Z,96312.88
2023-05-13T06:16:34.167Z,96312.34
2023-05-13T06:17:35.660Z,96314.75
2023-05-13T06:18:37.158Z,96316.31
2023-05-13T06:19:38.632Z,96315.78
2023-05-13T06:20:40.083Z,96317.09
2023-05-13T06:21:41.537Z,96317.63
2023-05-13T06:22:42.991Z,96321.59
2023-05-13T06:23:44.434Z,96316.03
2023-05-13T06:24:45.876Z,96321.59
2023-05-13T06:25:47.320Z,96323.16
2023-05-13T06:26:48.747Z,96322.63
2023-05-13T06:27:50.209Z,96319.72
2023-05-13T06:28:51.663Z,96319.19
2023-05-13T06:29:53.088Z,96312.84
2023-05-13T06:30:54.602Z,96315.22
2023-05-13T06:31:56.035Z,96317.31
2023-05-13T06:33:01.607Z,96319.44
2023-05-13T06:34:04.015Z,96322.63
2023-05-13T06:35:05.450Z,96319.72
2023-05-13T06:36:06.889Z,96320.22
2023-05-13T06:37:08.290Z,96322.59
2023-05-13T06:38:09.694Z,96324.97
2023-05-13T06:39:11.110Z,96327.09
2023-05-13T06:40:12.592Z,96322.31
2023-05-13T06:41:14.053Z,96326.28
2023-05-13T06:42:15.531Z,96317.25
2023-05-13T06:43:16.971Z,96329.97
2023-05-13T06:44:18.394Z,96332.34
2023-05-13T06:45:19.872Z,96326.78
2023-05-13T06:46:21.348Z,96322.03
2023-05-13T06:47:23.958Z,96329.44
2023-05-13T06:48:25.560Z,96330.75
2023-05-13T06:49:26.961Z,96334.97
2023-05-13T06:50:28.397Z,96327.56
2023-05-13T06:51:29.828Z,96329.94
2023-05-13T06:52:31.259Z,96323.59
2023-05-13T06:53:32.705Z,96330.22
2023-05-13T06:54:34.133Z,96328.88
2023-05-13T06:55:35.581Z,96332.03
2023-05-13T06:56:37.022Z,96331.78
2023-05-13T06:57:42.970Z,96329.91
2023-05-13T06:58:45.116Z,96335.19
2023-05-13T06:59:46.600Z,96338.34
2023-05-13T07:00:48.282Z,96335.41
2023-05-13T07:01:49.765Z,96335.94
2023-05-13T07:02:51.199Z,96329.31
2023-05-13T07:03:52.740Z,96335.94
2023-05-13T07:04:54.190Z,96326.91
2023-05-13T07:05:55.631Z,96331.94
2023-05-13T07:06:57.102Z,96332.44
2023-05-13T07:07:58.545Z,96334.56
2023-05-13T07:08:59.932Z,96334.31
2023-05-13T07:10:01.371Z,96331.09
2023-05-13T07:11:02.768Z,96329.75
2023-05-13T07:12:04.210Z,96330.28
2023-05-13T07:13:05.641Z,96330.78
2023-05-13T07:14:07.101Z,96335.81
2023-05-13T07:15:08.546Z,96334.50
2023-05-13T07:16:10.051Z,96330.50
2023-05-13T07:17:11.705Z,96336.31
2023-05-13T07:18:13.302Z,96340.28
2023-05-13T07:19:14.928Z,96332.84
2023-05-13T07:20:16.459Z,96336.78
2023-05-13T07:21:18.004Z,96342.59
2023-05-13T07:22:19.546Z,96337.84
2023-05-13T07:23:21.081Z,96341.53
2023-05-13T07:24:22.589Z,96341.25
2023-05-13T07:25:24.127Z,96338.31
2023-05-13T07:26:25.669Z,96344.91
2023-05-13T07:27:27.312Z,96339.34
2023-05-13T07:28:28.895Z,96335.09
2023-05-13T07:29:30.440Z,96335.63
2023-05-13T07:30:31.988Z,96338.78
2023-05-13T07:31:33.500Z,96333.75
2023-05-13T07:32:35.099Z,96341.94
2023-05-13T07:33:36.687Z,96331.34
2023-05-13T07:34:38.132Z,96336.88
2023-05-13T07:35:40.029Z,96338.44
2023-05-13T07:36:41.443Z,96335.00
2023-05-13T07:37:42.902Z,96337.06
2023-05-13T07:38:44.320Z,96336.03
2023-05-13T07:39:45.743Z,96335.44
2023-05-13T07:40:47.202Z,96338.06
2023-05-13T07:41:48.713Z,96335.94
2023-05-13T07:42:50.172Z,96340.97
2023-05-13T07:43:51.569Z,96338.53
2023-05-13T07:44:53.010Z,96340.63
2023-05-13T07:45:54.460Z,96343.81
2023-05-13T07:46:55.923Z,96343.22
2023-05-13T07:47:57.461Z,96344.56
2023-05-13T07:48:58.947Z,96341.31
2023-05-13T07:50:00.370Z,96342.34
2023-05-13T07:51:01.815Z,96345.50
2023-05-13T07:52:03.240Z,96337.81
2023-05-13T07:53:04.677Z,96340.97
2023-05-13T07:54:06.104Z,96340.94
2023-05-13T07:55:07.551Z,96344.09
2023-05-13T07:56:09.012Z,96340.59
2023-05-13T07:57:10.432Z,96343.75
2023-05-13T07:58:12.079Z,96342.13
2023-05-13T07:59:13.480Z,96349.03
2023-05-13T08:00:14.897Z,96350.81
2023-05-13T08:01:16.367Z,96349.50
2023-05-13T08:02:17.800Z,96345.50
2023-05-13T08:03:19.400Z,96347.31
2023-05-13T08:04:21.114Z,96346.75
2023-05-13T08:05:22.849Z,96350.44
2023-05-13T08:06:24.480Z,96340.00
2023-05-13T08:07:25.926Z,96344.78
2023-05-13T08:08:27.368Z,96345.00
2023-05-13T08:09:28.787Z,96341.50
2023-05-13T08:10:30.252Z,96343.59
2023-05-13T08:11:31.733Z,96346.44
2023-05-13T08:12:33.172Z,96344.03
2023-05-13T08:13:34.563Z,96342.69
2023-05-13T08:14:36.019Z,96342.88
2023-05-13T08:15:37.440Z,96345.00
2023-05-13T08:16:38.949Z,96338.31
2023-05-13T08:17:40.484Z,96343.84
2023-05-13T08:18:41.928Z,96343.28
2023-05-13T08:19:43.409Z,96342.72
2023-05-13T08:20:44.810Z,96350.13
2023-05-13T08:21:46.283Z,96342.66
2023-05-13T08:22:47.802Z,96343.66
2023-05-13T08:23:49.249Z,96351.03
2023-05-13T08:24:50.670Z,96347.31
2023-05-13T08:25:52.083Z,96345.69
2023-05-13T08:26:53.516Z,96341.66
2023-05-13T08:27:55.002Z,96342.19
2023-05-13T08:28:56.408Z,96346.94
2023-05-13T08:29:57.860Z,96344.78
2023-05-13T08:30:59.281Z,96340.75
2023-05-13T08:32:00.720Z,96339.38
2023-05-13T08:33:02.214Z,96347.84
2023-05-13T08:34:03.662Z,96349.16
2023-05-13T08:35:05.058Z,96347.78
2023-05-13T08:36:06.498Z,96346.41
2023-05-13T08:37:07.925Z,96350.38
2023-05-13T08:38:09.416Z,96346.34
2023-05-13T08:39:10.845Z,96346.06
2023-05-13T08:40:12.291Z,96339.38
2023-05-13T08:41:13.747Z,96345.97
2023-05-13T08:42:15.183Z,96345.44
2023-05-13T08:43:16.666Z,96342.44
2023-05-13T08:44:18.066Z,96337.63
2023-05-13T08:45:19.641Z,96341.59
2023-05-13T08:46:21.205Z,96350.09
2023-05-13T08:47:22.725Z,96343.38
2023-05-13T08:48:24.188Z,96350.78
2023-05-13T08:49:25.606Z,96348.63
2023-05-13T08:51:28.490Z,96349.34
2023-05-13T08:52:29.921Z,96343.72
2023-05-13T08:53:31.429Z,96348.75
2023-05-13T08:54:32.918Z,96348.19
2023-05-13T08:55:34.315Z,96358.22
2023-05-13T08:56:35.740Z,96346.22
2023-05-13T08:57:37.165Z,96346.72
2023-05-13T08:58:38.999Z,96354.13
2023-05-13T08:59:40.457Z,96349.59
2023-05-13T09:00:41.866Z,96349.00
2023-05-13T09:01:43.359Z,96350.59
2023-05-13T09:02:44.858Z,96347.63
2023-05-13T09:03:46.333Z,96355.84
2023-05-13T09:04:47.819Z,96355.56
2023-05-13T09:05:49.309Z,96357.91
2023-05-13T09:06:50.736Z,96352.31
2023-05-13T09:07:52.149Z,96354.69
2023-05-13T09:08:53.628Z,96352.53
2023-05-13T09:09:55.072Z,96356.47
2023-05-13T09:10:56.504Z,96354.31
2023-05-13T09:11:57.926Z,96354.31
2023-05-13T09:12:59.357Z,96352.63
2023-05-13T09:14:00.829Z,96358.75
2023-05-13T09:15:02.289Z,96353.13
2023-05-13T09:16:03.741Z,96359.75
2023-05-13T09:17:05.225Z,96354.94
2023-05-13T09:18:06.760Z,96358.09
2023-05-13T09:19:08.930Z,96363.13
2023-05-13T09:20:10.432Z,96359.38
2023-05-13T09:21:11.848Z,96359.84
2023-05-13T09:22:13.279Z,96365.97
2023-05-13T09:23:14.674Z,96364.59
2023-05-13T09:24:16.085Z,96363.50
2023-05-13T09:25:17.497Z,96370.44
2023-05-13T09:26:18.925Z,96366.38
2023-05-13T09:27:20.346Z,96370.63
2023-05-13T09:28:21.796Z,96362.34
2023-05-13T09:29:23.242Z,96366.59
2023-05-13T09:30:24.708Z,96368.97
2023-05-13T09:31:26.186Z,96363.31
2023-05-13T09:32:27.697Z,96366.78
2023-05-13T09:33:29.149Z,96363.03
2023-05-13T09:34:30.616Z,96363.81
2023-05-13T09:35:32.071Z,96370.44
2023-05-13T09:36:33.482Z,96371.22
2023-05-13T09:37:34.903Z,96370.13
2023-05-13T09:38:36.299Z,96377.03
2023-05-13T09:39:37.712Z,96365.28
2023-05-13T09:40:39.129Z,96366.09
2023-05-13T09:41:40.577Z,96369.56
2023-05-13T09:42:42.041Z,96370.03
2023-05-13T09:43:43.452Z,96367.38
2023-05-13T09:44:44.872Z,96367.09
2023-05-13T09:45:46.266Z,96358.31
2023-05-13T09:46:47.714Z,96369.47
2023-05-13T09:47:49.203Z,96366.81
2023-05-13T09:48:50.631Z,96364.94
2023-05-13T09:49:52.084Z,96363.03
2023-05-13T09:50:53.650Z,96369.16
2023-05-13T09:51:55.157Z,96369.97
2023-05-13T09:52:56.627Z,96361.66
2023-05-13T09:53:58.044Z,96360.09
2023-05-13T09:54:59.442Z,96357.44
2023-05-13T09:56:00.876Z,96362.47
2023-05-13T09:57:02.303Z,96365.13
2023-05-13T09:58:03.754Z,96366.97
2023-05-13T09:59:06.305Z,96356.34
2023-05-13T10:00:12.851Z,96356.03
2023-05-13T10:01:19.649Z,96363.75
2023-05-13T10:02:21.109Z,96364.81
2023-05-13T10:03:22.695Z,96366.69
2023-05-13T10:04:24.233Z,96355.25
2023-05-13T10:05:25.717Z,96359.81
2023-05-13T10:06:27.127Z,96361.38
2023-05-13T10:07:28.551Z,96354.47
2023-05-13T10:08:30.013Z,96353.66
2023-05-13T10:09:31.447Z,96359.50
2023-05-13T10:10:32.893Z,96357.63
2023-05-13T10:11:34.290Z,96361.06
2023-05-13T10:12:35.735Z,96359.19
2023-05-13T10:13:37.158Z,96358.13
2023-05-13T10:14:38.568Z,96361.56
2023-05-13T10:15:40.358Z,96357.31
2023-05-13T10:16:41.843Z,96359.69
2023-05-13T10:17:43.353Z,96361.56
2023-05-13T10:18:44.905Z,96368.16
2023-05-13T10:19:46.421Z,96370.84
2023-05-13T10:20:47.874Z,96363.66
2023-05-13T10:21:49.307Z,96363.66
2023-05-13T10:22:50.734Z,96366.00
2023-05-13T10:23:52.160Z,96367.88
2023-05-13T10:24:53.613Z,96366.00
2023-05-13T10:25:55.044Z,96359.91
2023-05-13T10:26:56.443Z,96361.50
2023-05-13T10:27:57.881Z,96359.59
2023-05-13T10:28:59.324Z,96366.81
2023-05-13T10:30:03.194Z,96361.50
2023-05-13T10:31:05.248Z,96365.72
2023-05-13T10:32:06.703Z,96366.50
2023-05-13T10:33:08.192Z,96360.66
2023-05-13T10:34:09.634Z,96356.16
2023-05-13T10:35:11.048Z,96367.59
2023-05-13T10:36:12.497Z,96364.16
2023-05-13T10:37:13.894Z,96365.72
2023-05-13T10:38:15.300Z,96364.94
2023-05-13T10:39:16.714Z,96365.72
2023-05-13T10:40:18.225Z,96367.59
2023-05-13T10:41:19.757Z,96362.25
2023-05-13T10:42:21.204Z,96363.34
2023-05-13T10:43:22.630Z,96363.34
2023-05-13T10:44:24.062Z,96363.34
2023-05-13T10:45:25.536Z,96364.44
2023-05-13T10:46:27.050Z,96354.84
2023-05-13T10:47:28.736Z,96357.53
2023-05-13T10:48:30.320Z,96355.16
2023-05-13T10:49:31.781Z,96356.25
2023-05-13T10:50:33.201Z,96360.78
2023-05-13T10:51:34.642Z,96364.53
2023-05-13T10:52:36.083Z,96363.75
2023-05-13T10:53:37.542Z,96361.06
2023-05-13T10:54:39.192Z,96361.38
2023-05-13T10:55:40.615Z,96365.91
2023-05-13T10:56:42.026Z,96356.34
2023-05-13T10:57:43.510Z,96351.81
2023-05-13T10:58:44.946Z,96356.66
2023-05-13T10:59:46.759Z,96356.66
2023-05-13T11:00:48.207Z,96363.81
2023-05-13T11:01:49.778Z,96358.81
2023-05-13T11:02:51.368Z,96358.00
2023-05-13T11:03:53.038Z,96362.56
2023-05-13T11:04:54.608Z,96367.09
2023-05-13T11:05:56.071Z,96359.41
2023-05-13T11:06:57.511Z,96364.72
2023-05-13T11:07:58.915Z,96363.16
2023-05-13T11:09:00.320Z,96358.63
2023-05-13T11:10:01.742Z,96366.09
2023-05-13T11:11:03.204Z,96361.56
2023-05-13T11:12:04.644Z,96367.19
2023-05-13T11:13:06.040Z,96364.50
2023-05-13T11:14:08.582Z,96368.28
2023-05-13T11:15:10.185Z,96369.34
2023-05-13T11:16:11.858Z,96363.25
2023-05-13T11:17:13.307Z,96368.56
2023-05-13T11:18:14.767Z,96363.53
2023-05-13T11:19:16.221Z,96368.84
2023-05-13T11:20:17.662Z,96373.41
2023-05-13T11:21:19.100Z,96372.63
2023-05-13T11:22:20.550Z,96371.81
2023-05-13T11:23:21.982Z,96370.25
2023-05-13T11:24:23.421Z,96364.91
2023-05-13T11:25:24.840Z,96368.34
2023-05-13T11:26:26.299Z,96364.13
2023-05-13T11:27:27.751Z,96361.47
2023-05-13T11:28:29.215Z,96361.47
2023-05-13T11:29:30.667Z,96362.53
2023-05-13T11:30:32.086Z,96358.81
2023-05-13T11:31:33.556Z,96363.31
2023-05-13T11:32:35.063Z,96355.34
2023-05-13T11:33:36.532Z,96355.34
2023-05-13T11:34:37.942Z,96360.66
2023-05-13T11:35:39.385Z,96354.56
2023-05-13T11:36:41.286Z,96356.94
2023-05-13T11:37:42.704Z,96363.03
2023-05-13T11:38:44.159Z,96357.72
2023-05-13T11:39:45.597Z,96356.63
2023-05-13T11:40:47.001Z,96351.81
2023-05-13T11:41:48.488Z,96356.03
2023-05-13T11:42:49.895Z,96362.63
2023-05-13T11:43:51.346Z,96359.69
2023-05-13T11:44:52.755Z,96355.94
2023-05-13T11:45:54.191Z,96352.19
2023-05-13T11:46:55.657Z,96354.28
2023-05-13T11:47:57.102Z,96357.44
2023-05-13T11:48:58.522Z,96358.69
2023-05-13T11:49:59.948Z,96354.66
2023-05-13T11:51:01.402Z,96361.00
2023-05-13T11:52:02.859Z,96364.66
2023-05-13T11:53:04.301Z,96354.19
2023-05-13T11:54:05.727Z,96352.50
2023-05-13T11:55:07.194Z,96354.31
2023-05-13T11:56:08.627Z,96353.69
2023-05-13T11:57:10.078Z,96356.25
2023-05-13T11:58:13.269Z,96351.91
2023-05-13T11:59:14.751Z,96348.84
2023-05-13T12:00:16.267Z,96356.72
2023-05-13T12:01:17.676Z,96355.81
2023-05-13T12:02:19.183Z,96354.94
2023-05-13T12:03:20.718Z,96354.03